Time;durP1;ratioP1;P1;durP2;ratioP2;P2;SDS_P1;SDS_P2;PMS_P1;PMS_P2;Temp;Humidity;BMP_temperature;BMP_pressure;BME280_temperature;BME280_humidity;BME280_pressure;Samples;Min_cycle;Max_cycle;Signal;HPM_P1;HPM_P2
2022/03/29 00:00:50;;;;;;;15.60;6.75;;;5.00;99.90;;;;;;5040076;28;20029;-49
2022/03/29 00:04:16;;;;;;;14.35;6.18;;;4.80;99.90;;;;;;5053681;28;20078;-49
2022/03/29 00:07:40;;;;;;;11.20;5.75;;;4.70;99.90;;;;;;5062572;28;20059;-48
2022/03/29 00:11:06;;;;;;;14.95;6.85;;;4.60;99.90;;;;;;5064309;28;20039;-52
2022/03/29 00:14:31;;;;;;;11.10;5.78;;;4.60;99.90;;;;;;5042878;28;20481;-48
2022/03/29 00:17:56;;;;;;;11.68;6.57;;;4.60;99.90;;;;;;5043127;28;20048;-49
2022/03/29 00:20:42;;;;;;;12.50;6.88;;;4.70;99.90;;;;;;5060455;28;20049;-47
2022/03/29 00:23:08;;;;;;;14.80;6.97;;;4.70;99.90;;;;;;5046956;28;20621;-47
2022/03/29 00:25:33;;;;;;;13.25;6.80;;;4.60;99.90;;;;;;5056171;28;20071;-50
2022/03/29 00:27:59;;;;;;;9.88;5.65;;;4.60;99.90;;;;;;5046865;28;20144;-51
2022/03/29 00:30:25;;;;;;;13.20;8.10;;;4.60;99.90;;;;;;5051118;28;20039;-48
2022/03/29 00:32:51;;;;;;;15.80;7.53;;;4.60;99.90;;;;;;5066066;28;20106;-51
2022/03/29 00:35:16;;;;;;;13.73;7.28;;;4.50;99.90;;;;;;5050167;28;20029;-52
2022/03/29 00:38:22;;;;;;;12.52;7.25;;;4.40;99.90;;;;;;5065454;28;20020;-50
2022/03/29 00:41:47;;;;;;;11.50;6.88;;;4.40;99.90;;;;;;5054711;28;20051;-52
2022/03/29 00:45:12;;;;;;;16.45;7.53;;;4.30;99.90;;;;;;5058210;28;20527;-53
2022/03/29 00:48:38;;;;;;;13.52;7.00;;;4.40;99.90;;;;;;5051919;28;20052;-53
2022/03/29 00:52:03;;;;;;;11.07;6.40;;;4.50;99.90;;;;;;5042515;28;20571;-53
2022/03/29 00:55:29;;;;;;;14.68;8.32;;;4.70;99.90;;;;;;5042203;28;20078;-46
2022/03/29 00:58:54;;;;;;;12.93;6.25;;;4.80;99.90;;;;;;5061731;28;20044;-51
2022/03/29 01:02:19;;;;;;;12.93;6.80;;;5.00;99.90;;;;;;5065207;28;20036;-49
2022/03/29 01:05:45;;;;;;;15.00;7.05;;;5.10;99.90;;;;;;5045567;28;20056;-52
2022/03/29 01:09:10;;;;;;;12.68;6.85;;;5.20;99.90;;;;;;5055379;28;20072;-53
2022/03/29 01:12:37;;;;;;;10.75;6.03;;;5.30;99.90;;;;;;5062484;28;20551;-53
2022/03/29 01:17:38;;;;;;;16.45;8.43;;;5.50;99.90;;;;;;5052753;28;20102;-50
2022/03/29 01:19:26;;;;;;;12.50;7.40;;;5.50;99.90;;;;;;5056022;28;20480;-53
2022/03/29 01:22:51;;;;;;;14.98;6.93;;;5.60;99.90;;;;;;5062397;28;20036;-52
2022/03/29 01:26:17;;;;;;;14.32;7.53;;;5.70;99.90;;;;;;5061715;28;20052;-51
2022/03/29 01:29:43;;;;;;;14.15;8.07;;;5.80;99.90;;;;;;5063934;28;20037;-52
2022/03/29 01:33:22;;;;;;;14.05;8.02;;;5.90;99.90;;;;;;5063901;28;20063;-48
2022/03/29 01:36:48;;;;;;;15.38;8.23;;;5.90;99.90;;;;;;5065842;28;20382;-50
2022/03/29 01:40:13;;;;;;;15.45;7.65;;;6.00;99.90;;;;;;5050226;28;20037;-47
2022/03/29 01:43:38;;;;;;;15.60;8.40;;;6.00;99.90;;;;;;5060348;28;20495;-46
2022/03/29 01:47:04;;;;;;;15.60;8.85;;;6.10;99.90;;;;;;5069446;28;20043;-47
2022/03/29 01:50:29;;;;;;;17.45;9.00;;;6.10;99.90;;;;;;5050846;28;20043;-54
2022/03/29 01:54:02;;;;;;;18.40;9.30;;;6.20;99.90;;;;;;5060094;28;20032;-54
2022/03/29 01:57:26;;;;;;;16.20;9.85;;;6.20;99.90;;;;;;5059735;28;20434;-56
2022/03/29 02:00:52;;;;;;;17.83;9.85;;;6.20;99.90;;;;;;5044583;28;20033;-50
2022/03/29 02:04:17;;;;;;;14.75;8.70;;;6.30;99.90;;;;;;5058096;28;20120;-52
2022/03/29 02:07:42;;;;;;;16.52;7.85;;;6.30;99.90;;;;;;5051597;28;20493;-49
2022/03/29 02:11:08;;;;;;;20.35;11.57;;;6.30;99.90;;;;;;5061416;28;20086;-51
2022/03/29 02:14:34;;;;;;;17.90;10.38;;;6.30;99.90;;;;;;5057709;28;20656;-50
2022/03/29 02:17:58;;;;;;;20.20;10.98;;;6.30;99.90;;;;;;5020975;28;20060;-52
2022/03/29 02:21:24;;;;;;;18.40;9.90;;;6.30;99.90;;;;;;5065425;28;20040;-50
2022/03/29 02:24:49;;;;;;;18.58;9.18;;;6.30;99.90;;;;;;5038345;28;20045;-52
2022/03/29 02:28:14;;;;;;;12.80;7.40;;;6.40;99.90;;;;;;5012593;28;20061;-47
2022/03/29 02:31:40;;;;;;;12.98;7.93;;;6.30;99.90;;;;;;5027073;28;20069;-48
2022/03/29 02:35:05;;;;;;;15.10;8.55;;;6.40;99.90;;;;;;5026611;28;20048;-47
2022/03/29 02:38:30;;;;;;;13.48;8.50;;;6.40;99.90;;;;;;5010900;28;20030;-47
2022/03/29 02:41:56;;;;;;;14.88;8.75;;;6.40;99.90;;;;;;5024889;28;20036;-49
2022/03/29 02:45:21;;;;;;;14.10;8.30;;;6.40;99.90;;;;;;5013630;28;20045;-52
2022/03/29 02:48:47;;;;;;;14.75;7.78;;;6.40;99.90;;;;;;5019406;28;20050;-49
2022/03/29 02:52:13;;;;;;;12.52;7.38;;;6.40;99.90;;;;;;5019444;28;20676;-54
2022/03/29 02:55:38;;;;;;;15.95;9.02;;;6.40;99.90;;;;;;5010966;28;20038;-51
2022/03/29 02:59:03;;;;;;;16.67;9.38;;;6.50;99.90;;;;;;5018931;28;20069;-50
2022/03/29 03:02:29;;;;;;;14.93;8.35;;;6.50;99.90;;;;;;5019112;28;20103;-52
2022/03/29 03:05:53;;;;;;;15.85;9.48;;;6.50;99.90;;;;;;5008625;28;20034;-50
2022/03/29 03:09:19;;;;;;;12.95;7.82;;;6.50;99.90;;;;;;5017146;28;20033;-52
2022/03/29 03:12:44;;;;;;;16.30;8.70;;;6.50;99.90;;;;;;5015629;28;20042;-49
2022/03/29 03:16:10;;;;;;;16.98;9.10;;;6.50;99.90;;;;;;5015141;28;20544;-51
2022/03/29 03:19:35;;;;;;;12.75;7.72;;;6.50;99.90;;;;;;5016845;28;20040;-52
2022/03/29 03:23:00;;;;;;;16.70;8.90;;;6.50;99.90;;;;;;5011709;28;20026;-51
2022/03/29 03:26:26;;;;;;;20.02;9.52;;;6.50;99.90;;;;;;5049657;28;20049;-47
2022/03/29 03:29:51;;;;;;;15.43;9.05;;;6.50;99.90;;;;;;5056554;28;20036;-47
2022/03/29 03:33:16;;;;;;;16.90;9.15;;;6.60;99.90;;;;;;5058358;28;20454;-52
2022/03/29 03:36:42;;;;;;;15.57;9.15;;;6.50;99.90;;;;;;5058163;28;20040;-48
2022/03/29 03:40:07;;;;;;;15.80;8.13;;;6.60;99.90;;;;;;5048458;28;20072;-51
2022/03/29 03:43:32;;;;;;;16.75;8.90;;;6.60;99.90;;;;;;5065679;28;20058;-52
2022/03/29 03:47:00;;;;;;;16.17;8.90;;;6.50;99.90;;;;;;5065550;28;20071;-52
2022/03/29 03:50:23;;;;;;;15.70;8.35;;;6.50;99.90;;;;;;5045712;28;20048;-50
2022/03/29 03:53:50;;;;;;;17.40;9.82;;;6.50;99.90;;;;;;5053984;28;20029;-51
2022/03/29 03:57:14;;;;;;;15.60;9.05;;;6.50;99.90;;;;;;5043401;28;20443;-48
2022/03/29 04:00:39;;;;;;;14.07;9.25;;;6.50;99.90;;;;;;5058013;28;20037;-51
2022/03/29 04:04:05;;;;;;;19.10;10.57;;;6.50;99.90;;;;;;5049695;28;20438;-49
2022/03/29 04:07:30;;;;;;;18.55;9.75;;;6.50;99.90;;;;;;5056655;28;20105;-51
2022/03/29 04:10:56;;;;;;;18.05;8.80;;;6.50;99.90;;;;;;5054667;28;20033;-53
2022/03/29 04:14:21;;;;;;;20.15;11.18;;;6.50;99.90;;;;;;5050733;28;20033;-48
2022/03/29 04:17:46;;;;;;;16.67;8.70;;;6.40;99.90;;;;;;5040842;28;20416;-49
2022/03/29 04:21:12;;;;;;;17.98;9.95;;;6.40;99.90;;;;;;5055875;28;20046;-49
2022/03/29 04:24:37;;;;;;;18.23;9.70;;;6.50;99.90;;;;;;5057736;28;20484;-53
2022/03/29 04:28:02;;;;;;;15.98;7.97;;;6.50;99.90;;;;;;5058750;28;20084;-49
2022/03/29 04:31:28;;;;;;;22.70;11.07;;;6.50;99.90;;;;;;5029235;28;20029;-49
2022/03/29 04:34:53;;;;;;;19.10;10.55;;;6.50;99.90;;;;;;5063938;28;20040;-51
2022/03/29 04:38:19;;;;;;;16.77;9.73;;;6.50;99.90;;;;;;5055491;28;20036;-50
2022/03/29 04:41:44;;;;;;;18.23;10.32;;;6.50;99.90;;;;;;5048740;28;20029;-47
2022/03/29 04:45:09;;;;;;;20.42;10.07;;;6.50;99.90;;;;;;5063269;28;20032;-49
2022/03/29 04:48:35;;;;;;;16.58;9.93;;;6.50;99.90;;;;;;5049629;28;20202;-50
2022/03/29 04:52:00;;;;;;;23.60;11.88;;;6.50;99.90;;;;;;5061519;28;20029;-52
2022/03/29 04:55:25;;;;;;;21.33;11.00;;;6.50;99.90;;;;;;5069837;28;20411;-50
2022/03/29 04:58:51;;;;;;;19.42;10.63;;;6.40;99.90;;;;;;5049689;28;20120;-48
2022/03/29 05:02:16;;;;;;;20.15;10.52;;;6.40;99.90;;;;;;5061171;28;20090;-52
2022/03/29 05:05:41;;;;;;;21.65;11.73;;;6.40;99.90;;;;;;5070635;28;20492;-48
2022/03/29 05:09:07;;;;;;;17.15;9.43;;;6.40;99.90;;;;;;5054825;28;20049;-48
2022/03/29 05:12:32;;;;;;;21.17;10.85;;;6.40;99.90;;;;;;5061225;28;20047;-50
2022/03/29 05:15:57;;;;;;;20.13;10.57;;;6.40;99.90;;;;;;5050229;28;20040;-49
2022/03/29 05:19:23;;;;;;;20.42;10.65;;;6.40;99.90;;;;;;5057727;28;20093;-50
2022/03/29 05:22:48;;;;;;;19.88;10.15;;;6.40;99.90;;;;;;5066436;28;20055;-50
2022/03/29 05:26:14;;;;;;;16.25;9.40;;;6.40;99.90;;;;;;5057272;28;20041;-50
2022/03/29 05:29:39;;;;;;;33.45;10.05;;;6.40;99.90;;;;;;5051474;28;20107;-49
2022/03/29 05:33:04;;;;;;;19.52;10.57;;;6.40;99.90;;;;;;5060866;28;20029;-48
2022/03/29 05:36:30;;;;;;;21.63;11.23;;;6.50;99.90;;;;;;5032024;28;20045;-50
2022/03/29 05:39:55;;;;;;;23.73;11.73;;;6.40;99.90;;;;;;5067613;28;20028;-47
2022/03/29 05:43:20;;;;;;;23.17;11.02;;;6.40;99.90;;;;;;5058754;28;20055;-53
2022/03/29 05:50:10;;;;;;;25.60;11.73;;;6.40;99.90;;;;;;5051685;28;20067;-50
2022/03/29 05:53:35;;;;;;;26.17;11.48;;;6.40;99.90;;;;;;5045734;28;20024;-54
2022/03/29 05:57:00;;;;;;;22.95;11.23;;;6.40;99.90;;;;;;5060141;28;20392;-52
2022/03/29 06:00:27;;;;;;;23.00;13.23;;;6.50;99.90;;;;;;5065550;28;20040;-50
2022/03/29 06:03:11;;;;;;;25.15;13.07;;;6.50;99.90;;;;;;5040830;28;20468;-51
2022/03/29 06:05:41;;;;;;;23.52;12.63;;;6.50;99.90;;;;;;5070703;28;20043;-49
2022/03/29 06:08:47;;;;;;;24.95;14.13;;;6.50;99.90;;;;;;5048742;28;20044;-48
2022/03/29 06:12:12;;;;;;;24.88;12.98;;;6.50;99.90;;;;;;5031158;28;20439;-50
2022/03/29 06:15:37;;;;;;;25.40;12.38;;;6.50;99.90;;;;;;5032862;28;20044;-50
2022/03/29 06:19:03;;;;;;;24.13;12.00;;;6.50;99.90;;;;;;5054523;28;20642;-52
2022/03/29 06:21:32;;;;;;;21.08;10.32;;;6.50;99.90;;;;;;5030792;28;20037;-54
2022/03/29 06:23:58;;;;;;;21.90;10.27;;;6.50;99.90;;;;;;5051129;28;20486;-56
2022/03/29 06:26:23;;;;;;;24.95;12.52;;;6.60;99.90;;;;;;5069758;28;20068;-55
2022/03/29 06:28:49;;;;;;;23.23;12.75;;;6.60;99.90;;;;;;5049653;28;20051;-54
2022/03/29 06:31:14;;;;;;;33.72;13.30;;;6.60;99.90;;;;;;5069870;28;20036;-56
2022/03/29 06:33:40;;;;;;;29.10;14.07;;;6.60;99.90;;;;;;5049385;28;20029;-54
2022/03/29 06:36:05;;;;;;;25.08;12.88;;;6.70;99.90;;;;;;5069896;28;20032;-56
2022/03/29 06:38:31;;;;;;;25.48;13.30;;;6.70;99.90;;;;;;5049236;28;20075;-57
2022/03/29 06:40:59;;;;;;;30.25;14.13;;;6.60;99.90;;;;;;5069968;28;20025;-56
2022/03/29 06:44:06;;;;;;;25.05;13.73;;;6.70;99.90;;;;;;5048934;28;20093;-54
2022/03/29 06:47:30;;;;;;;20.95;11.75;;;6.70;99.90;;;;;;5064228;28;20075;-51
2022/03/29 06:50:55;;;;;;;29.60;14.13;;;6.70;99.90;;;;;;5068637;28;20043;-53
2022/03/29 06:54:20;;;;;;;22.65;10.82;;;6.70;99.90;;;;;;5048436;28;20412;-55
2022/03/29 06:57:46;;;;;;;28.38;13.05;;;6.80;99.90;;;;;;5046469;28;20039;-57
2022/03/29 07:01:11;;;;;;;21.42;11.05;;;6.90;99.90;;;;;;5062214;28;20028;-53
2022/03/29 07:04:37;;;;;;;25.33;12.75;;;7.00;99.90;;;;;;5049638;28;20480;-52
2022/03/29 07:08:02;;;;;;;22.90;11.80;;;7.20;99.90;;;;;;5058245;28;20047;-55
2022/03/29 07:11:27;;;;;;;21.95;11.30;;;7.40;99.90;;;;;;5055079;28;20594;-55
2022/03/29 07:14:53;;;;;;;23.02;11.07;;;7.80;98.00;;;;;;5050424;28;20041;-60
2022/03/29 07:18:18;;;;;;;30.10;13.02;;;8.10;95.40;;;;;;5044819;28;20049;-54
2022/03/29 07:21:44;;;;;;;20.17;11.73;;;8.30;93.00;;;;;;5055076;28;20037;-55
2022/03/29 07:25:09;;;;;;;27.33;12.57;;;8.80;91.50;;;;;;5056071;28;20028;-57
2022/03/29 07:28:34;;;;;;;25.25;12.82;;;9.50;85.50;;;;;;5028514;28;20045;-58
2022/03/29 07:31:59;;;;;;;22.65;12.20;;;9.90;81.00;;;;;;5056092;28;20032;-58
2022/03/29 07:35:25;;;;;;;20.65;11.70;;;10.10;74.00;;;;;;5028790;28;20076;-56
2022/03/29 07:38:50;;;;;;;22.17;11.50;;;10.70;68.00;;;;;;5064585;28;20080;-55
2022/03/29 07:42:16;;;;;;;21.25;11.98;;;10.50;66.50;;;;;;5062578;28;20028;-57
2022/03/29 07:45:41;;;;;;;20.70;11.10;;;10.10;68.10;;;;;;5064748;28;20499;-54
2022/03/29 07:49:06;;;;;;;24.60;12.77;;;10.20;63.50;;;;;;5062717;28;20047;-51
2022/03/29 07:52:31;;;;;;;19.05;11.40;;;10.30;55.80;;;;;;5051312;28;20029;-58
2022/03/29 07:55:57;;;;;;;15.77;9.77;;;10.50;57.40;;;;;;5056797;28;20399;-48
2022/03/29 07:59:22;;;;;;;20.30;10.07;;;13.00;44.50;;;;;;5057152;28;20033;-54
2022/03/29 08:02:48;;;;;;;17.88;10.02;;;14.30;32.70;;;;;;5041437;28;20037;-54
2022/03/29 08:06:13;;;;;;;21.27;11.13;;;15.10;29.80;;;;;;5062123;28;20032;-56
2022/03/29 08:09:38;;;;;;;19.30;10.32;;;14.60;26.70;;;;;;5050529;28;20041;-58
2022/03/29 08:13:03;;;;;;;21.98;11.65;;;14.60;28.40;;;;;;5057957;28;20704;-48
2022/03/29 08:16:29;;;;;;;18.83;10.27;;;14.00;26.10;;;;;;5050480;28;20040;-53
2022/03/29 08:19:54;;;;;;;17.67;10.45;;;13.80;29.90;;;;;;5063918;28;20492;-53
2022/03/29 08:23:20;;;;;;;18.55;10.98;;;13.70;28.30;;;;;;5063852;28;20047;-52
2022/03/29 08:26:45;;;;;;;16.33;9.75;;;13.90;26.70;;;;;;5064378;28;20040;-55
2022/03/29 08:30:10;;;;;;;15.82;9.32;;;14.70;29.00;;;;;;5057409;28;20037;-49
2022/03/29 08:33:36;;;;;;;16.70;10.32;;;14.80;25.80;;;;;;5065539;28;20033;-53
2022/03/29 08:37:01;;;;;;;17.85;9.70;;;15.30;23.70;;;;;;5064384;28;20067;-50
2022/03/29 08:40:27;;;;;;;17.27;10.02;;;15.50;22.10;;;;;;5031885;28;20118;-55
2022/03/29 08:43:52;;;;;;;19.17;9.35;;;15.80;18.40;;;;;;5069434;28;20028;-52
2022/03/29 08:47:17;;;;;;;12.77;7.35;;;17.60;18.70;;;;;;5048786;28;20041;-53
2022/03/29 08:50:43;;;;;;;15.15;8.57;;;20.90;14.20;;;;;;5060253;28;20123;-54
2022/03/29 08:54:08;;;;;;;12.70;8.20;;;22.80;9.60;;;;;;5060192;28;20407;-56
2022/03/29 08:57:33;;;;;;;16.15;8.93;;;21.50;12.90;;;;;;5052002;28;20102;-52
2022/03/29 09:00:59;;;;;;;16.58;8.95;;;19.60;14.00;;;;;;5064663;28;20399;-55
2022/03/29 09:04:07;;;;;;;12.88;8.85;;;21.70;8.60;;;;;;5067800;28;20040;-55
2022/03/29 09:07:12;;;;;;;11.82;7.35;;;23.20;8.80;;;;;;5051447;28;20052;-55
2022/03/29 09:10:38;;;;;;;15.80;7.72;;;24.20;10.20;;;;;;5046566;28;20413;-55
2022/03/29 09:14:07;;;;;;;11.63;7.68;;;25.40;4.70;;;;;;5065361;28;20044;-53
2022/03/29 09:17:45;;;;;;;13.40;6.70;;;26.10;5.80;;;;;;5049993;28;20037;-53
2022/03/29 09:21:28;;;;;;;11.95;8.32;;;25.90;2.80;;;;;;5049080;28;20037;-54
2022/03/29 09:24:53;;;;;;;11.35;7.25;;;24.90;2.60;;;;;;5051545;28;20051;-56
2022/03/29 09:28:36;;;;;;;9.35;7.07;;;25.30;1.30;;;;;;5064743;28;20673;-52
2022/03/29 09:32:03;;;;;;;12.02;7.47;;;25.10;1.00;;;;;;5050382;28;20033;-50
2022/03/29 09:35:27;;;;;;;11.27;6.68;;;25.20;3.10;;;;;;5058564;28;20085;-58
2022/03/29 09:38:59;;;;;;;9.50;6.50;;;25.20;1.70;;;;;;5030707;28;20042;-57
2022/03/29 09:42:24;;;;;;;12.27;7.80;;;25.50;1.00;;;;;;5046944;28;20124;-58
2022/03/29 09:46:02;;;;;;;12.13;7.10;;;24.90;1.70;;;;;;5063231;28;20519;-57
2022/03/29 09:49:27;;;;;;;11.27;7.85;;;24.10;2.30;;;;;;5059436;28;20135;-58
2022/03/29 09:52:56;;;;;;;13.88;6.40;;;24.40;1.00;;;;;;5057422;28;20643;-58
2022/03/29 09:56:24;;;;;;;11.45;6.82;;;25.00;1.00;;;;;;5057034;28;20029;-52
2022/03/29 09:59:46;;;;;;;10.90;6.65;;;24.40;1.50;;;;;;5049714;28;20033;-56
2022/03/29 10:03:17;;;;;;;9.20;6.30;;;24.50;1.00;;;;;;5062435;28;20040;-57
2022/03/29 10:06:40;;;;;;;10.82;6.13;;;23.30;1.20;;;;;;5056345;28;20032;-59
2022/03/29 10:10:09;;;;;;;14.25;6.47;;;23.10;2.50;;;;;;5029651;28;20045;-58
2022/03/29 10:13:36;;;;;;;9.73;6.25;;;23.30;1.60;;;;;;5064136;28;20041;-54
2022/03/29 10:16:59;;;;;;;11.27;6.05;;;21.30;2.90;;;;;;5045739;28;20040;-55
2022/03/29 10:20:25;;;;;;;11.35;6.47;;;21.60;2.40;;;;;;5058755;28;20044;-50
2022/03/29 10:23:50;;;;;;;8.18;5.43;;;20.80;2.80;;;;;;5058701;28;20039;-51
2022/03/29 10:27:15;;;;;;;12.13;6.28;;;18.90;5.00;;;;;;5047403;28;20507;-55
2022/03/29 10:30:50;;;;;;;12.98;5.97;;;17.30;6.60;;;;;;5054611;28;20037;-51
2022/03/29 10:34:16;;;;;;;12.45;7.65;;;16.30;8.70;;;;;;5049265;28;20037;-55
2022/03/29 10:37:39;;;;;;;13.00;7.03;;;15.60;10.10;;;;;;5042801;28;20040;-52
2022/03/29 10:41:14;;;;;;;16.17;7.82;;;15.10;11.30;;;;;;5058318;28;20544;-54
2022/03/29 10:44:39;;;;;;;11.98;6.97;;;14.80;12.40;;;;;;5054738;28;20412;-56
2022/03/29 10:47:56;;;;;;;11.57;7.28;;;14.50;13.10;;;;;;5045701;28;20076;-52
2022/03/29 10:50:51;;;;;;;12.57;7.35;;;14.20;13.30;;;;;;5055223;28;20035;-55
2022/03/29 10:54:14;;;;;;;11.20;7.47;;;14.00;13.50;;;;;;5054535;28;20126;-55
2022/03/29 10:57:45;;;;;;;13.02;7.40;;;13.90;13.90;;;;;;5043758;28;20110;-58
2022/03/29 11:01:10;;;;;;;17.15;8.63;;;13.80;13.50;;;;;;5056176;28;20507;-52
2022/03/29 11:04:20;;;;;;;13.85;8.98;;;13.90;13.90;;;;;;5050640;28;20033;-56
2022/03/29 11:07:04;;;;;;;15.00;7.65;;;13.60;13.20;;;;;;5042388;28;20123;-52
2022/03/29 11:10:36;;;;;;;13.13;7.68;;;13.80;13.70;;;;;;5047919;28;20041;-57
2022/03/29 11:14:04;;;;;;;18.77;9.07;;;13.80;13.00;;;;;;5067121;28;20032;-57
2022/03/29 11:17:10;;;;;;;;;;;13.60;12.70;;;;;;5046251;28;20124;-56
2022/03/29 11:20:54;;;;;;;25.25;12.10;;;13.40;13.40;;;;;;5057346;28;19908;-52
2022/03/29 11:24:19;;;;;;;13.95;8.02;;;13.20;15.00;;;;;;5057103;28;20029;-54
2022/03/29 11:27:44;;;;;;;14.02;8.15;;;13.40;14.50;;;;;;5042165;28;20408;-54
2022/03/29 11:31:12;;;;;;;12.52;7.35;;;13.60;13.60;;;;;;5055556;28;20029;-56
2022/03/29 11:34:18;;;;;;;13.40;7.00;;;13.60;12.80;;;;;;5049904;28;20531;-57
2022/03/29 11:36:43;;;;;;;8.70;5.83;;;13.60;12.80;;;;;;5028683;28;20122;-56
2022/03/29 11:39:21;;;;;;;16.17;8.43;;;13.60;12.50;;;;;;5067098;28;20083;-58
2022/03/29 11:41:47;;;;;;;9.18;6.50;;;13.70;12.40;;;;;;5027487;28;20021;-57
2022/03/29 11:44:15;;;;;;;13.68;7.63;;;13.80;12.60;;;;;;5065289;28;20075;-56
2022/03/29 11:46:49;;;;;;;12.20;6.97;;;13.70;12.70;;;;;;5068366;28;20029;-57
2022/03/29 11:49:20;;;;;;;11.00;6.28;;;13.70;12.60;;;;;;5047171;28;20025;-57
2022/03/29 11:52:11;;;;;;;19.17;6.50;;;13.70;12.60;;;;;;5068598;28;20116;-55
2022/03/29 11:54:48;;;;;;;11.63;6.35;;;13.60;12.40;;;;;;5033398;28;20154;-55
2022/03/29 11:57:24;;;;;;;11.00;7.03;;;13.50;12.80;;;;;;5067997;28;20028;-53
2022/03/29 11:59:51;;;;;;;17.65;7.30;;;13.50;12.80;;;;;;5036930;28;20481;-58
2022/03/29 12:02:22;;;;;;;12.10;5.75;;;13.40;12.60;;;;;;5068535;28;20017;-56
2022/03/29 12:04:48;;;;;;;6.38;4.75;;;13.30;13.00;;;;;;5036445;28;20067;-56
2022/03/29 12:07:15;;;;;;;10.10;6.35;;;13.30;12.50;;;;;;5068441;28;20040;-56
2022/03/29 12:09:48;;;;;;;11.18;6.50;;;13.20;12.40;;;;;;5050780;28;20020;-56
2022/03/29 12:12:14;;;;;;;13.48;5.45;;;13.20;12.30;;;;;;5068157;28;20024;-55
2022/03/29 12:14:40;;;;;;;13.10;7.03;;;13.10;11.90;;;;;;5050512;28;20028;-56
2022/03/29 12:17:08;;;;;;;12.20;6.80;;;13.00;11.10;;;;;;5063201;28;20085;-58
2022/03/29 12:19:36;;;;;;;9.00;5.35;;;13.00;11.50;;;;;;5049442;28;20024;-57
2022/03/29 12:22:07;;;;;;;9.80;5.53;;;13.00;11.90;;;;;;5068184;28;20043;-66
2022/03/29 12:24:44;;;;;;;9.02;5.28;;;13.10;12.40;;;;;;5048534;28;20112;-65
2022/03/29 12:27:14;;;;;;;10.02;5.38;;;13.10;12.40;;;;;;5064894;28;20029;-69
2022/03/29 12:29:52;;;;;;;6.82;4.35;;;13.10;12.30;;;;;;5068508;28;20028;-69
2022/03/29 12:32:18;;;;;;;6.40;3.88;;;13.10;12.30;;;;;;5032360;28;20582;-68
2022/03/29 12:34:53;;;;;;;8.02;4.28;;;13.20;12.30;;;;;;5067939;28;20091;-67
2022/03/29 12:37:18;;;;;;;10.15;5.18;;;13.30;12.00;;;;;;5032762;28;20079;-67
2022/03/29 12:39:45;;;;;;;10.75;5.05;;;13.20;12.20;;;;;;5068262;28;20454;-66
2022/03/29 12:42:13;;;;;;;6.85;4.10;;;13.20;12.20;;;;;;5048573;28;20033;-67
2022/03/29 12:44:47;;;;;;;9.73;5.32;;;13.30;12.40;;;;;;5067965;28;20497;-67
2022/03/29 12:47:15;;;;;;;9.77;4.93;;;13.60;12.50;;;;;;5048201;28;20048;-67
2022/03/29 12:49:41;;;;;;;9.70;4.10;;;13.70;11.50;;;;;;5068241;28;20033;-68
2022/03/29 12:52:46;;;;;;;9.82;5.03;;;13.70;11.40;;;;;;5048045;28;20429;-67
2022/03/29 12:56:12;;;;;;;8.65;4.32;;;13.60;11.10;;;;;;5048420;28;20037;-67
2022/03/29 12:59:44;;;;;;;7.93;3.90;;;13.40;10.40;;;;;;5043510;28;20111;-67
2022/03/29 13:03:09;;;;;;;6.63;3.58;;;13.00;10.40;;;;;;5060032;28;20064;-66
2022/03/29 13:06:34;;;;;;;7.32;3.50;;;13.10;11.50;;;;;;5027977;28;20481;-66
2022/03/29 13:10:00;;;;;;;6.80;2.83;;;13.20;12.30;;;;;;5061434;28;20127;-67
2022/03/29 13:13:28;;;;;;;7.90;2.95;;;13.20;12.60;;;;;;5065025;28;20040;-66
2022/03/29 13:16:50;;;;;;;9.35;3.15;;;13.20;11.70;;;;;;5051936;28;20036;-67
2022/03/29 13:20:14;;;;;;;6.20;2.45;;;13.10;11.90;;;;;;5059246;28;20028;-67
2022/03/29 13:23:49;;;;;;;8.32;3.95;;;13.10;12.00;;;;;;5065467;28;20036;-66
2022/03/29 13:27:14;;;;;;;7.90;2.90;;;12.90;11.00;;;;;;5067089;28;20052;-67
2022/03/29 13:30:39;;;;;;;8.57;2.75;;;12.70;11.50;;;;;;5065435;28;20040;-67
2022/03/29 13:34:11;;;;;;;7.03;2.97;;;12.70;12.00;;;;;;5045355;28;20068;-67
2022/03/29 13:37:36;;;;;;;7.47;2.72;;;12.70;11.40;;;;;;5063622;28;20500;-67
2022/03/29 13:41:01;;;;;;;9.40;2.90;;;12.70;11.70;;;;;;5064965;28;20043;-67
2022/03/29 13:44:28;;;;;;;4.35;2.00;;;12.60;11.40;;;;;;5050050;28;20041;-67
2022/03/29 13:47:55;;;;;;;4.97;1.88;;;12.60;11.50;;;;;;5056887;28;20051;-67
2022/03/29 13:51:20;;;;;;;5.43;2.10;;;12.50;11.70;;;;;;5048722;28;20077;-67
2022/03/29 13:54:45;;;;;;;7.53;2.50;;;12.60;12.20;;;;;;5067348;28;20036;-67
2022/03/29 13:58:11;;;;;;;7.43;2.08;;;12.60;12.50;;;;;;5046573;28;20073;-67
2022/03/29 14:01:37;;;;;;;6.55;1.80;;;12.60;13.30;;;;;;5037611;28;20032;-68
2022/03/29 14:05:01;;;;;;;4.63;1.40;;;12.70;12.90;;;;;;5050227;28;20049;-66
2022/03/29 14:08:30;;;;;;;10.50;1.83;;;12.70;13.40;;;;;;5061085;28;20044;-66
2022/03/29 14:11:55;;;;;;;2.85;1.40;;;12.90;13.00;;;;;;5047238;28;20094;-70
2022/03/29 14:15:20;;;;;;;6.07;1.55;;;13.00;13.10;;;;;;5066798;28;20037;-69
2022/03/29 14:18:46;;;;;;;8.05;1.63;;;13.00;11.80;;;;;;5052934;28;20052;-66
2022/03/29 14:22:14;;;;;;;3.53;1.63;;;13.00;11.50;;;;;;5062992;28;20534;-73
2022/03/29 14:25:37;;;;;;;3.83;1.30;;;12.90;12.10;;;;;;5051668;28;20063;-73
2022/03/29 14:29:02;;;;;;;5.45;1.83;;;12.90;11.70;;;;;;5030046;28;20489;-72
2022/03/29 14:32:28;;;;;;;4.18;1.40;;;12.90;11.50;;;;;;5049468;28;20037;-72
2022/03/29 14:35:53;;;;;;;7.03;1.70;;;12.90;11.40;;;;;;5060496;28;20586;-75
2022/03/29 14:39:18;;;;;;;4.53;1.23;;;12.90;11.30;;;;;;5058287;28;20032;-74
2022/03/29 14:42:43;;;;;;;16.00;2.13;;;12.80;11.10;;;;;;5046783;28;20539;-71
2022/03/29 14:46:09;;;;;;;5.07;1.20;;;12.80;10.90;;;;;;5064030;28;20526;-71
2022/03/29 14:49:34;;;;;;;7.57;1.80;;;12.90;10.50;;;;;;5049664;28;20094;-69
2022/03/29 14:53:00;;;;;;;6.88;1.30;;;12.70;10.20;;;;;;5048277;28;20039;-67
2022/03/29 14:56:25;;;;;;;3.17;1.10;;;12.60;10.70;;;;;;5045369;28;20029;-67
2022/03/29 14:59:52;;;;;;;6.60;1.80;;;12.40;10.80;;;;;;5042609;28;20075;-65
2022/03/29 15:03:15;;;;;;;5.50;1.45;;;12.30;11.30;;;;;;5065884;28;20068;-67
2022/03/29 15:06:41;;;;;;;6.97;1.45;;;12.20;11.50;;;;;;5050715;28;20036;-67
2022/03/29 15:10:08;;;;;;;8.30;1.55;;;12.10;12.00;;;;;;5065238;28;20060;-65
2022/03/29 15:13:32;;;;;;;6.18;1.20;;;12.00;12.50;;;;;;5057599;28;20052;-65
2022/03/29 15:16:59;;;;;;;7.10;1.55;;;12.00;11.90;;;;;;5039709;28;20033;-66
2022/03/29 15:20:22;;;;;;;4.47;1.25;;;11.90;11.60;;;;;;5055361;28;20043;-65
2022/03/29 15:23:48;;;;;;;6.40;1.27;;;11.90;11.40;;;;;;5053941;28;20127;-68
2022/03/29 15:27:13;;;;;;;6.22;1.30;;;11.90;11.50;;;;;;5057435;28;20040;-68
2022/03/29 15:30:38;;;;;;;7.45;1.38;;;11.80;11.90;;;;;;5055991;28;20044;-66
2022/03/29 15:34:04;;;;;;;3.30;1.20;;;11.70;12.20;;;;;;5054016;28;20493;-67
2022/03/29 15:37:29;;;;;;;5.20;1.73;;;11.60;12.70;;;;;;5062072;28;20044;-66
2022/03/29 15:40:54;;;;;;;4.97;1.60;;;11.50;13.00;;;;;;5055464;28;20492;-71
2022/03/29 15:44:20;;;;;;;6.45;1.75;;;11.40;13.20;;;;;;5057492;28;20039;-67
2022/03/29 15:47:45;;;;;;;4.80;1.42;;;11.30;12.90;;;;;;5060712;28;20510;-67
2022/03/29 15:51:11;;;;;;;6.47;1.73;;;11.30;13.30;;;;;;5058370;28;20032;-66
2022/03/29 15:54:36;;;;;;;6.47;1.70;;;11.20;13.60;;;;;;5048723;28;20044;-67
2022/03/29 15:58:02;;;;;;;6.38;1.75;;;11.10;13.70;;;;;;5056690;28;20123;-67
2022/03/29 16:01:27;;;;;;;6.72;1.60;;;11.00;13.60;;;;;;5046423;28;20033;-66
2022/03/29 16:04:52;;;;;;;3.47;1.08;;;10.90;13.90;;;;;;5057046;28;20097;-67
2022/03/29 16:08:18;;;;;;;6.75;1.70;;;10.70;14.40;;;;;;5062388;28;20047;-67
2022/03/29 16:11:43;;;;;;;5.18;2.13;;;10.70;14.70;;;;;;5048247;28;20147;-67
2022/03/29 16:15:11;;;;;;;9.35;1.88;;;10.60;14.40;;;;;;5064490;28;20028;-67
2022/03/29 16:18:34;;;;;;;5.32;1.42;;;10.60;14.90;;;;;;5063874;28;20066;-67
2022/03/29 16:21:59;;;;;;;5.93;1.40;;;10.50;14.80;;;;;;5049720;28;20095;-67
2022/03/29 16:25:24;;;;;;;9.65;1.50;;;10.40;15.00;;;;;;5051346;28;20131;-67
2022/03/29 16:28:50;;;;;;;6.13;1.50;;;10.30;15.20;;;;;;5047838;28;20585;-68
2022/03/29 16:32:15;;;;;;;6.28;1.42;;;10.20;15.30;;;;;;5046922;28;20040;-68
2022/03/29 16:35:41;;;;;;;4.35;1.90;;;10.10;15.70;;;;;;5062145;28;20389;-67
2022/03/29 16:39:06;;;;;;;5.60;1.20;;;10.00;16.10;;;;;;5048049;28;20044;-67
2022/03/29 16:42:31;;;;;;;7.85;1.52;;;9.90;15.90;;;;;;5028137;28;20037;-67
2022/03/29 16:45:57;;;;;;;7.18;1.30;;;9.80;16.20;;;;;;5049128;28;20055;-67
2022/03/29 16:49:22;;;;;;;8.07;1.65;;;9.60;17.00;;;;;;5060464;28;20689;-66
2022/03/29 16:52:47;;;;;;;6.72;1.40;;;9.50;17.50;;;;;;5060098;28;20041;-68
2022/03/29 16:56:13;;;;;;;4.97;1.45;;;9.40;16.80;;;;;;5047002;28;20033;-66
2022/03/29 16:59:38;;;;;;;3.60;1.40;;;9.30;17.00;;;;;;5065983;28;20102;-66